createdAt,value
2022-08-17T00:00:17.290Z,16.98
2022-08-17T00:03:10.233Z,16.97
2022-08-17T00:06:03.309Z,16.95
2022-08-17T00:08:57.430Z,16.89
2022-08-17T00:11:34.258Z,16.89
2022-08-17T00:14:11.238Z,16.78
2022-08-17T00:16:56.097Z,16.88
2022-08-17T00:19:25.657Z,16.63
2022-08-17T00:22:32.534Z,16.94
2022-08-17T00:24:43.473Z,16.90
2022-08-17T00:27:10.253Z,16.71
2022-08-17T00:29:36.772Z,16.94
2022-08-17T00:33:15.123Z,16.78
2022-08-17T00:34:50.436Z,16.95
2022-08-17T00:37:17.055Z,16.84
2022-08-17T00:39:44.168Z,16.84
2022-08-17T00:42:17.027Z,16.98
2022-08-17T00:44:44.796Z,16.86
2022-08-17T00:47:11.527Z,16.84
2022-08-17T00:49:38.186Z,16.86
2022-08-17T00:52:15.650Z,16.90
2022-08-17T00:54:47.296Z,17.03
2022-08-17T00:57:19.807Z,16.87
2022-08-17T01:00:03.249Z,16.80
2022-08-17T01:02:42.639Z,16.99
2022-08-17T01:05:15.294Z,16.88
2022-08-17T01:07:43.402Z,16.66
2022-08-17T01:11:00.253Z,16.89
2022-08-17T01:13:02.644Z,16.76
2022-08-17T01:15:33.550Z,16.80
2022-08-17T01:18:00.262Z,16.63
2022-08-17T01:20:27.196Z,16.72
2022-08-17T01:22:53.851Z,16.57
2022-08-17T01:25:21.507Z,16.53
2022-08-17T01:27:48.919Z,16.68
2022-08-17T01:30:58.541Z,16.58
2022-08-17T01:33:04.371Z,16.45
2022-08-17T01:35:31.380Z,16.46
2022-08-17T01:37:58.091Z,16.48
2022-08-17T01:40:41.987Z,16.56
2022-08-17T01:43:21.548Z,16.41
2022-08-17T01:46:02.512Z,16.44
2022-08-17T01:48:38.789Z,16.53
2022-08-17T01:51:07.302Z,16.45
2022-08-17T01:53:41.587Z,16.26
2022-08-17T01:56:11.750Z,16.37
2022-08-17T01:58:39.592Z,16.46
2022-08-17T02:01:07.672Z,16.36
2022-08-17T02:03:35.549Z,16.42
2022-08-17T02:06:03.715Z,16.38
2022-08-17T02:08:38.640Z,16.34
2022-08-17T02:11:11.705Z,16.30
2022-08-17T02:13:39.044Z,16.23
2022-08-17T02:16:05.955Z,16.08
2022-08-17T02:18:33.062Z,16.21
2022-08-17T02:21:00.411Z,16.19
2022-08-17T02:23:30.505Z,15.86
2022-08-17T02:25:59.820Z,16.14
2022-08-17T02:28:28.550Z,16.08
2022-08-17T02:31:03.858Z,15.98
2022-08-17T02:33:42.054Z,16.09
2022-08-17T02:36:11.804Z,16.08
2022-08-17T02:38:39.886Z,15.99
2022-08-17T02:41:06.970Z,16.06
2022-08-17T02:43:34.013Z,16.05
2022-08-17T02:46:00.816Z,16.01
2022-08-17T02:48:30.398Z,15.86
2022-08-17T02:50:59.010Z,15.89
2022-08-17T02:53:25.942Z,15.95
2022-08-17T02:55:53.187Z,15.67
2022-08-17T02:58:32.079Z,15.89
2022-08-17T03:01:06.545Z,15.62
2022-08-17T03:03:34.449Z,15.84
2022-08-17T03:06:01.418Z,15.73
2022-08-17T03:08:28.847Z,15.75
2022-08-17T03:10:55.637Z,15.55
2022-08-17T03:13:22.690Z,15.74
2022-08-17T03:15:49.803Z,15.84
2022-08-17T03:18:25.574Z,15.70
2022-08-17T03:21:00.266Z,15.76
2022-08-17T03:23:29.712Z,15.88
2022-08-17T03:25:58.205Z,15.80
2022-08-17T03:28:25.737Z,15.92
2022-08-17T03:30:52.951Z,15.95
2022-08-17T03:33:20.163Z,15.98
2022-08-17T03:35:47.395Z,16.00
2022-08-17T03:38:15.361Z,16.01
2022-08-17T03:40:57.856Z,15.97
2022-08-17T03:43:29.346Z,15.82
2022-08-17T03:46:27.591Z,16.07
2022-08-17T03:49:18.702Z,16.11
2022-08-17T03:52:04.126Z,15.84
2022-08-17T03:54:49.506Z,16.07
2022-08-17T03:57:16.748Z,16.00
2022-08-17T03:59:45.022Z,16.20
2022-08-17T04:02:22.316Z,16.18
2022-08-17T04:04:52.414Z,16.22
2022-08-17T04:07:21.308Z,16.25
2022-08-17T04:09:48.404Z,16.26
2022-08-17T04:12:17.159Z,16.16
2022-08-17T04:14:52.945Z,16.15
2022-08-17T04:17:23.225Z,16.37
2022-08-17T04:19:50.058Z,16.28
2022-08-17T04:22:32.817Z,16.29
2022-08-17T04:25:21.185Z,16.38
2022-08-17T04:27:49.005Z,16.32
2022-08-17T04:30:15.817Z,16.37
2022-08-17T04:33:05.765Z,16.50
2022-08-17T04:35:43.829Z,16.53
2022-08-17T04:38:13.540Z,16.55
2022-08-17T04:40:58.845Z,16.40
2022-08-17T04:43:27.903Z,16.60
2022-08-17T04:46:01.950Z,16.53
2022-08-17T04:48:37.010Z,16.46
2022-08-17T04:51:33.097Z,16.63
2022-08-17T04:54:04.051Z,16.66
2022-08-17T04:56:31.973Z,16.58
2022-08-17T04:59:06.669Z,16.63
2022-08-17T05:01:35.489Z,16.70
2022-08-17T05:04:33.446Z,16.56
2022-08-17T05:06:55.009Z,16.56
2022-08-17T05:09:21.964Z,16.47
2022-08-17T05:11:49.524Z,16.60
2022-08-17T05:14:16.126Z,16.68
2022-08-17T05:16:42.904Z,16.50
2022-08-17T05:19:09.547Z,16.70
2022-08-17T05:21:36.294Z,16.76
2022-08-17T05:24:05.998Z,16.78
2022-08-17T05:26:46.947Z,16.95
2022-08-17T05:29:16.053Z,16.95
2022-08-17T05:31:42.678Z,16.83
2022-08-17T05:34:12.009Z,17.09
2022-08-17T05:36:42.841Z,16.86
2022-08-17T05:39:16.803Z,17.13
2022-08-17T05:41:45.108Z,17.05
2022-08-17T05:44:16.431Z,16.98
2022-08-17T05:46:49.335Z,17.32
2022-08-17T05:49:21.934Z,17.29
2022-08-17T05:51:57.853Z,17.61
2022-08-17T05:54:50.875Z,17.59
2022-08-17T05:57:48.163Z,17.79
2022-08-17T06:00:42.033Z,17.87
2022-08-17T06:03:11.856Z,17.95
2022-08-17T06:06:05.392Z,17.97
2022-08-17T06:08:38.464Z,18.09
2022-08-17T06:11:20.463Z,18.14
2022-08-17T06:14:20.146Z,18.22
2022-08-17T06:16:50.030Z,18.32
2022-08-17T06:19:34.302Z,18.21
2022-08-17T06:22:02.903Z,18.30
2022-08-17T06:24:39.478Z,18.45
2022-08-17T06:27:25.522Z,18.23
2022-08-17T06:30:09.153Z,18.45
2022-08-17T06:32:42.648Z,18.44
2022-08-17T06:35:12.807Z,18.73
2022-08-17T06:37:55.567Z,18.80
2022-08-17T06:40:49.141Z,18.85
2022-08-17T06:43:40.420Z,18.93
2022-08-17T06:46:13.144Z,18.97
2022-08-17T06:48:46.719Z,18.88
2022-08-17T06:51:43.377Z,18.94
2022-08-17T06:54:38.202Z,19.02
2022-08-17T06:57:21.120Z,19.07
2022-08-17T07:00:18.639Z,19.12
2022-08-17T07:02:56.765Z,19.19
2022-08-17T07:05:32.136Z,19.03
2022-08-17T07:08:29.144Z,19.34
2022-08-17T07:11:01.255Z,19.31
2022-08-17T07:13:51.071Z,19.54
2022-08-17T07:16:47.941Z,19.65
2022-08-17T07:19:17.175Z,19.74
2022-08-17T07:21:57.749Z,19.78
2022-08-17T07:24:33.593Z,19.82
2022-08-17T07:27:37.151Z,19.88
2022-08-17T07:30:11.072Z,19.94
2022-08-17T07:32:50.747Z,19.99
2022-08-17T07:35:17.241Z,20.07
2022-08-17T07:37:53.104Z,20.05
2022-08-17T07:40:27.019Z,20.13
2022-08-17T07:43:18.790Z,20.19
2022-08-17T07:46:30.629Z,20.25
2022-08-17T07:49:17.229Z,20.21
2022-08-17T07:51:43.922Z,20.16
2022-08-17T07:54:22.786Z,20.38
2022-08-17T07:56:52.969Z,20.42
2022-08-17T07:59:24.395Z,20.67
2022-08-17T08:01:58.140Z,20.88
2022-08-17T08:05:01.627Z,21.02
2022-08-17T08:07:56.674Z,21.28
2022-08-17T08:10:35.596Z,21.39
2022-08-17T08:13:10.737Z,21.63
2022-08-17T08:15:53.626Z,21.88
2022-08-17T08:18:55.361Z,22.02
2022-08-17T08:21:49.070Z,22.13
2022-08-17T08:24:40.868Z,22.13
2022-08-17T08:27:27.669Z,22.03
2022-08-17T08:30:08.500Z,22.04
2022-08-17T08:32:51.639Z,22.02
2022-08-17T08:35:44.404Z,22.02
2022-08-17T08:38:26.920Z,22.03
2022-08-17T08:41:01.110Z,21.75
2022-08-17T08:44:03.651Z,22.04
2022-08-17T08:47:14.410Z,22.07
2022-08-17T08:50:07.446Z,22.16
2022-08-17T08:52:44.782Z,22.10
2022-08-17T08:55:34.558Z,21.99
2022-08-17T08:58:31.538Z,21.92
2022-08-17T09:01:00.415Z,21.92
2022-08-17T09:03:53.053Z,22.02
2022-08-17T09:06:39.411Z,22.18
2022-08-17T09:09:29.336Z,22.49
2022-08-17T09:13:09.607Z,22.66
2022-08-17T09:15:48.233Z,22.59
2022-08-17T09:19:00.480Z,22.44
2022-08-17T09:21:13.782Z,22.55
2022-08-17T09:23:59.381Z,22.61
2022-08-17T09:26:46.600Z,22.62
2022-08-17T09:29:17.104Z,22.75
2022-08-17T09:31:55.659Z,22.65
2022-08-17T09:34:35.092Z,22.93
2022-08-17T09:37:19.186Z,23.38
2022-08-17T09:39:55.688Z,23.39
2022-08-17T09:42:52.506Z,23.52
2022-08-17T09:45:35.114Z,23.50
2022-08-17T09:48:14.843Z,23.63
2022-08-17T09:51:04.633Z,24.00
2022-08-17T09:53:36.170Z,24.27
2022-08-17T09:56:32.952Z,24.76
2022-08-17T09:59:38.857Z,25.29
2022-08-17T10:02:46.258Z,25.46
2022-08-17T10:05:18.106Z,25.61
2022-08-17T10:07:56.118Z,25.58
2022-08-17T10:10:36.309Z,25.43
2022-08-17T10:13:10.521Z,25.42
2022-08-17T10:15:58.738Z,25.39
2022-08-17T10:18:44.454Z,25.32
2022-08-17T10:21:32.861Z,25.22
2022-08-17T10:24:30.357Z,25.12
2022-08-17T10:27:00.779Z,25.02
2022-08-17T10:29:48.645Z,24.91
2022-08-17T10:32:27.869Z,25.00
2022-08-17T10:35:16.595Z,25.01
2022-08-17T10:37:56.387Z,24.87
2022-08-17T10:40:45.419Z,24.90
2022-08-17T10:43:36.705Z,24.82
2022-08-17T10:46:30.394Z,24.89
2022-08-17T10:49:16.707Z,24.82
2022-08-17T10:51:47.335Z,24.87
2022-08-17T10:54:47.358Z,25.15
2022-08-17T10:57:29.250Z,25.76
2022-08-17T10:59:57.567Z,26.03
2022-08-17T11:02:50.013Z,26.73
2022-08-17T11:05:19.915Z,27.00
2022-08-17T11:08:05.415Z,27.14
2022-08-17T11:10:53.658Z,27.35
2022-08-17T11:13:45.175Z,27.41
2022-08-17T11:16:39.627Z,27.24
2022-08-17T11:20:01.580Z,27.12
2022-08-17T11:22:59.206Z,27.09
2022-08-17T11:25:54.777Z,27.21
2022-08-17T11:28:34.557Z,27.43
2022-08-17T11:31:37.915Z,27.86
2022-08-17T11:34:26.445Z,28.29
2022-08-17T11:37:05.374Z,28.61
2022-08-17T11:40:10.619Z,28.96
2022-08-17T11:43:25.431Z,29.44
2022-08-17T11:46:46.041Z,29.81
2022-08-17T11:49:58.675Z,30.20
2022-08-17T11:52:47.031Z,30.56
2022-08-17T11:55:40.681Z,30.58
2022-08-17T11:58:29.520Z,30.12
2022-08-17T12:01:29.385Z,29.48
2022-08-17T12:04:25.286Z,29.23
2022-08-17T12:07:00.838Z,29.50
2022-08-17T12:09:34.469Z,29.68
2022-08-17T12:12:14.563Z,29.65
2022-08-17T12:15:09.546Z,29.72
2022-08-17T12:17:40.815Z,29.89
2022-08-17T12:20:26.288Z,30.06
2022-08-17T12:23:16.610Z,30.27
2022-08-17T12:25:56.654Z,30.57
2022-08-17T12:28:32.867Z,30.24
2022-08-17T12:31:59.303Z,29.94
2022-08-17T12:34:42.464Z,29.53
2022-08-17T12:37:19.215Z,29.55
2022-08-17T12:40:08.560Z,30.06
2022-08-17T12:42:39.239Z,30.39
2022-08-17T12:45:20.442Z,30.18
2022-08-17T12:47:46.998Z,29.98
2022-08-17T12:50:29.813Z,29.59
2022-08-17T12:53:01.725Z,29.49
2022-08-17T12:55:32.505Z,29.21
2022-08-17T12:58:02.377Z,28.76
2022-08-17T13:00:35.765Z,28.49
2022-08-17T13:03:05.907Z,27.99
2022-08-17T13:05:58.515Z,27.70
2022-08-17T13:08:39.654Z,27.50
2022-08-17T13:11:10.107Z,27.35
2022-08-17T13:13:39.618Z,27.11
2022-08-17T13:17:15.475Z,26.96
2022-08-17T13:19:49.497Z,26.60
2022-08-17T13:22:18.326Z,26.45
2022-08-17T13:24:56.538Z,26.38
2022-08-17T13:27:26.129Z,26.23
2022-08-17T13:29:57.739Z,25.99
2022-08-17T13:32:39.938Z,26.05
2022-08-17T13:35:39.182Z,25.86
2022-08-17T13:38:10.268Z,25.62
2022-08-17T13:40:55.007Z,25.19
2022-08-17T13:43:44.907Z,24.37
2022-08-17T13:46:21.205Z,23.56
2022-08-17T13:49:02.811Z,22.90
2022-08-17T13:51:43.078Z,22.55
2022-08-17T13:54:28.580Z,22.05
2022-08-17T13:57:02.558Z,22.00
2022-08-17T13:59:52.728Z,21.48
2022-08-17T14:02:20.421Z,21.39
2022-08-17T14:04:48.615Z,21.11
2022-08-17T14:07:16.192Z,21.08
2022-08-17T14:09:52.116Z,20.97
2022-08-17T14:12:22.218Z,20.69
2022-08-17T14:14:49.659Z,20.66
2022-08-17T14:17:16.592Z,20.42
2022-08-17T14:19:43.225Z,20.28
2022-08-17T14:22:18.896Z,20.28
2022-08-17T14:24:45.937Z,19.99
2022-08-17T14:27:12.471Z,19.78
2022-08-17T14:29:41.250Z,19.40
2022-08-17T14:32:23.926Z,19.00
2022-08-17T14:34:51.833Z,18.92
2022-08-17T14:37:20.469Z,18.79
2022-08-17T14:39:53.042Z,18.51
2022-08-17T14:43:22.323Z,18.57
2022-08-17T14:46:39.279Z,18.52
2022-08-17T14:49:05.878Z,18.36
2022-08-17T14:51:32.539Z,18.36
2022-08-17T14:53:59.302Z,18.32
2022-08-17T14:56:26.366Z,18.29
2022-08-17T14:58:53.217Z,18.19
2022-08-17T15:01:21.714Z,18.15
2022-08-17T15:03:48.771Z,18.29
2022-08-17T15:06:16.465Z,18.19
2022-08-17T15:08:44.146Z,18.20
2022-08-17T15:11:14.398Z,18.08
2022-08-17T15:13:52.763Z,18.20
2022-08-17T15:16:41.107Z,17.90
2022-08-17T15:19:15.188Z,17.75
2022-08-17T15:22:10.812Z,17.69
2022-08-17T15:27:37.591Z,17.84
2022-08-17T15:32:58.602Z,17.91
2022-08-17T15:35:29.526Z,18.12
2022-08-17T15:38:18.534Z,18.14
2022-08-17T15:40:55.897Z,17.97
2022-08-17T15:43:30.292Z,17.91
2022-08-17T15:46:24.048Z,17.73
2022-08-17T15:48:56.418Z,17.93
2022-08-17T15:51:26.260Z,17.95
2022-08-17T15:54:19.423Z,18.04
2022-08-17T15:56:49.582Z,18.10
2022-08-17T15:59:16.353Z,18.16
2022-08-17T16:03:01.358Z,18.08
2022-08-17T16:04:46.572Z,18.06
2022-08-17T16:07:26.378Z,18.22
2022-08-17T16:10:09.172Z,18.18
2022-08-17T16:12:37.330Z,18.31
2022-08-17T16:15:07.806Z,18.19
2022-08-17T16:17:39.561Z,18.06
2022-08-17T16:20:19.918Z,18.29
2022-08-17T16:23:03.127Z,18.04
2022-08-17T16:25:52.144Z,18.54
2022-08-17T16:28:20.133Z,18.28
2022-08-17T16:30:48.707Z,18.44
2022-08-17T16:33:16.799Z,18.45
2022-08-17T16:35:43.649Z,18.01
2022-08-17T16:38:11.125Z,18.31
2022-08-17T16:40:42.833Z,18.31
2022-08-17T16:43:26.514Z,17.98
2022-08-17T16:45:53.477Z,17.90
2022-08-17T16:48:20.226Z,18.12
2022-08-17T16:51:03.277Z,17.98
2022-08-17T16:53:33.688Z,18.37
2022-08-17T16:56:07.679Z,18.26
2022-08-17T16:58:34.401Z,18.39
2022-08-17T17:01:01.094Z,18.56
2022-08-17T17:03:32.005Z,18.46
2022-08-17T17:09:39.828Z,18.54
2022-08-17T17:12:18.974Z,18.84
2022-08-17T17:15:02.996Z,18.67
2022-08-17T17:17:36.245Z,18.66
2022-08-17T17:20:11.718Z,18.80
2022-08-17T17:22:55.471Z,19.03
2022-08-17T17:25:34.804Z,19.02
2022-08-17T17:28:30.518Z,19.12
2022-08-17T17:31:07.921Z,19.01
2022-08-17T17:33:43.605Z,18.96
2022-08-17T17:36:24.162Z,19.20
2022-08-17T17:38:54.721Z,19.17
2022-08-17T17:41:37.155Z,19.39
2022-08-17T17:44:13.369Z,19.18
2022-08-17T17:46:50.987Z,19.28
2022-08-17T17:49:18.525Z,19.37
2022-08-17T17:52:22.758Z,19.54
2022-08-17T17:55:21.541Z,19.55
2022-08-17T17:58:08.921Z,19.56
2022-08-17T18:00:43.925Z,19.31
2022-08-17T18:03:50.814Z,19.55
2022-08-17T18:06:31.647Z,19.32
2022-08-17T18:09:33.800Z,19.40
2022-08-17T18:12:13.816Z,19.64
2022-08-17T18:53:01.753Z,18.80
2022-08-17T18:57:09.854Z,19.30
2022-08-17T19:03:34.697Z,18.96
2022-08-17T19:07:42.856Z,18.72
2022-08-17T19:16:53.635Z,18.50
2022-08-17T19:19:30.555Z,18.90
2022-08-17T19:22:29.049Z,18.54
2022-08-17T19:25:11.554Z,18.47
2022-08-17T19:28:20.446Z,18.52
2022-08-17T19:30:51.287Z,18.44
2022-08-17T19:33:22.885Z,18.45
2022-08-17T19:35:59.340Z,18.53
2022-08-17T19:38:47.889Z,18.79
2022-08-17T19:41:37.465Z,18.63
2022-08-17T19:44:27.150Z,18.64
2022-08-17T19:47:36.167Z,18.49
2022-08-17T19:50:24.780Z,18.38
2022-08-17T19:53:09.775Z,18.29
2022-08-17T19:55:51.088Z,18.83
2022-08-17T19:58:29.616Z,18.70
2022-08-17T20:00:56.441Z,18.56
2022-08-17T20:03:26.987Z,18.63
2022-08-17T20:06:12.711Z,18.71
2022-08-17T20:08:49.092Z,18.77
2022-08-17T20:11:25.803Z,18.84
2022-08-17T20:14:53.655Z,18.43
2022-08-17T20:17:31.602Z,18.59
2022-08-17T20:20:33.413Z,18.87
2022-08-17T20:23:51.045Z,18.72
2022-08-17T20:26:27.124Z,18.89
2022-08-17T20:29:14.105Z,18.51
2022-08-17T20:31:49.573Z,18.61
2022-08-17T20:34:33.582Z,18.82
2022-08-17T20:37:30.477Z,18.52
2022-08-17T20:40:20.484Z,18.84
2022-08-17T20:42:47.364Z,18.44
2022-08-17T20:45:27.460Z,18.82
2022-08-17T20:48:37.042Z,18.37
2022-08-17T20:50:57.581Z,18.67
2022-08-17T20:53:49.538Z,18.76
2022-08-17T20:56:46.562Z,18.73
2022-08-17T20:59:27.497Z,18.69
2022-08-17T21:02:12.474Z,18.65
2022-08-17T21:05:34.739Z,18.53
2022-08-17T21:08:13.180Z,18.57
2022-08-17T21:10:43.867Z,18.55
2022-08-17T21:13:16.249Z,18.51
2022-08-17T21:15:50.412Z,18.49
2022-08-17T21:18:52.800Z,18.45
2022-08-17T21:21:39.742Z,18.38
2022-08-17T21:24:23.072Z,18.46
2022-08-17T21:27:07.389Z,18.29
2022-08-17T21:29:40.552Z,18.51
2022-08-17T21:32:18.477Z,18.36
2022-08-17T21:35:11.410Z,18.52
2022-08-17T21:37:44.266Z,18.51
2022-08-17T21:40:10.819Z,18.56
2022-08-17T21:43:15.844Z,18.57
2022-08-17T21:45:43.542Z,18.50
2022-08-17T21:48:19.836Z,18.54
2022-08-17T21:51:15.323Z,18.54
2022-08-17T21:53:56.159Z,18.41
2022-08-17T21:56:35.521Z,18.41
2022-08-17T21:59:08.448Z,18.52
2022-08-17T22:01:42.235Z,18.43
2022-08-17T22:04:11.774Z,18.53
2022-08-17T22:06:40.343Z,18.54
2022-08-17T22:09:10.078Z,18.54
2022-08-17T22:11:56.777Z,18.53
2022-08-17T22:14:53.243Z,18.51
2022-08-17T22:17:48.229Z,18.51
2022-08-17T22:20:18.367Z,18.47
2022-08-17T22:23:12.691Z,18.45
2022-08-17T22:25:56.995Z,18.45
2022-08-17T22:28:37.399Z,18.28
2022-08-17T22:31:06.331Z,18.36
2022-08-17T22:33:33.381Z,18.39
2022-08-17T22:36:12.858Z,18.34
2022-08-17T22:38:41.432Z,18.29
2022-08-17T22:41:31.358Z,18.32
2022-08-17T22:44:27.427Z,18.30
2022-08-17T22:46:59.235Z,18.30
2022-08-17T22:49:34.136Z,18.15
2022-08-17T22:53:00.542Z,18.26
2022-08-17T22:55:48.791Z,18.10
2022-08-17T22:58:38.177Z,18.24
2022-08-17T23:01:28.719Z,18.27
2022-08-17T23:04:32.618Z,18.23
2022-08-17T23:06:59.262Z,18.10
2022-08-17T23:09:25.845Z,18.15
2022-08-17T23:11:58.994Z,18.15
2022-08-17T23:14:31.666Z,18.23
2022-08-17T23:17:01.855Z,18.07
2022-08-17T23:19:31.418Z,18.02
2022-08-17T23:21:59.203Z,18.30
2022-08-17T23:24:30.044Z,18.29
2022-08-17T23:26:58.115Z,18.27
2022-08-17T23:29:29.225Z,18.27
2022-08-17T23:31:59.848Z,18.13
2022-08-17T23:34:28.009Z,18.23
2022-08-17T23:36:55.854Z,18.25
2022-08-17T23:39:24.759Z,18.26
2022-08-17T23:41:56.813Z,18.24
2022-08-17T23:44:23.753Z,18.13
2022-08-17T23:46:51.912Z,18.18
2022-08-17T23:49:19.235Z,18.11
2022-08-17T23:51:47.739Z,18.14
2022-08-17T23:54:34.597Z,18.22
2022-08-17T23:57:01.951Z,18.24
2022-08-17T23:59:29.262Z,18.22
